createdAt,value
2019-05-06T00:00:53.443Z,66.02
2019-05-06T00:03:10.181Z,65.82
2019-05-06T00:05:40.112Z,65.54
2019-05-06T00:08:16.279Z,65.28
2019-05-06T00:10:44.724Z,65.11
2019-05-06T00:13:13.961Z,65.11
2019-05-06T00:15:40.764Z,65.09
2019-05-06T00:18:14.768Z,64.80
2019-05-06T00:21:04.774Z,64.67
2019-05-06T00:23:38.217Z,64.90
2019-05-06T00:26:40.333Z,64.82
2019-05-06T00:29:13.979Z,65.05
2019-05-06T00:31:41.069Z,64.93
2019-05-06T00:34:08.143Z,64.32
2019-05-06T00:36:35.136Z,64.12
2019-05-06T00:39:17.111Z,63.91
2019-05-06T00:41:46.316Z,64.05
2019-05-06T00:44:15.113Z,64.05
2019-05-06T00:46:43.762Z,63.59
2019-05-06T00:49:10.797Z,63.59
2019-05-06T00:51:37.796Z,63.94
2019-05-06T00:54:14.411Z,63.96
2019-05-06T00:56:41.184Z,64.04
2019-05-06T00:59:14.332Z,63.83
2019-05-06T01:01:43.533Z,63.83
2019-05-06T01:04:10.612Z,63.99
2019-05-06T01:06:43.880Z,64.08
2019-05-06T01:09:15.515Z,63.91
2019-05-06T01:11:44.909Z,63.86
2019-05-06T01:14:23.655Z,64.12
2019-05-06T01:16:50.660Z,64.34
2019-05-06T01:19:17.805Z,64.73
2019-05-06T01:21:46.062Z,64.82
2019-05-06T01:24:14.726Z,64.82
2019-05-06T01:26:41.854Z,64.65
2019-05-06T01:29:08.875Z,64.55
2019-05-06T01:31:42.715Z,64.60
2019-05-06T01:34:11.430Z,64.59
2019-05-06T01:36:38.437Z,64.48
2019-05-06T01:39:24.763Z,64.32
2019-05-06T01:42:16.587Z,64.27
2019-05-06T01:44:44.298Z,64.08
2019-05-06T01:47:15.985Z,64.15
2019-05-06T01:49:56.060Z,64.15
2019-05-06T01:52:24.047Z,64.16
2019-05-06T01:54:51.187Z,64.25
2019-05-06T01:57:20.903Z,64.45
2019-05-06T01:59:47.898Z,64.42
2019-05-06T02:02:15.046Z,64.59
2019-05-06T02:04:47.238Z,64.54
2019-05-06T02:07:17.516Z,64.42
2019-05-06T02:09:46.809Z,64.36
2019-05-06T02:12:19.049Z,64.36
2019-05-06T02:14:46.045Z,64.47
2019-05-06T02:17:15.788Z,64.59
2019-05-06T02:19:46.595Z,64.79
2019-05-06T02:22:20.321Z,64.65
2019-05-06T02:25:00.781Z,64.57
2019-05-06T02:27:29.543Z,64.55
2019-05-06T02:30:05.435Z,64.55
2019-05-06T02:32:48.375Z,64.48
2019-05-06T02:35:34.807Z,64.41
2019-05-06T02:38:07.972Z,64.61
2019-05-06T02:40:37.759Z,64.40
2019-05-06T02:43:04.901Z,64.34
2019-05-06T02:45:33.459Z,64.37
2019-05-06T02:48:13.966Z,64.33
2019-05-06T02:50:59.308Z,64.35
2019-05-06T02:53:27.783Z,64.35
2019-05-06T02:55:55.107Z,64.25
2019-05-06T02:58:23.672Z,64.34
2019-05-06T03:00:53.709Z,64.80
2019-05-06T03:03:23.296Z,64.73
2019-05-06T03:05:53.238Z,64.85
2019-05-06T03:08:19.426Z,64.73
2019-05-06T03:10:46.422Z,64.91
2019-05-06T03:13:23.750Z,65.11
2019-05-06T03:15:56.679Z,64.99
2019-05-06T03:18:25.901Z,65.03
2019-05-06T03:21:37.063Z,64.86
2019-05-06T03:24:23.924Z,65.33
2019-05-06T03:27:04.459Z,65.33
2019-05-06T03:29:33.387Z,65.15
2019-05-06T03:32:07.678Z,65.31
2019-05-06T03:34:57.107Z,65.67
2019-05-06T03:37:07.175Z,65.44
2019-05-06T03:39:33.881Z,65.49
2019-05-06T03:42:04.208Z,65.26
2019-05-06T03:44:32.891Z,65.29
2019-05-06T03:47:38.532Z,65.45
2019-05-06T03:50:06.047Z,65.45
2019-05-06T03:52:36.106Z,65.48
2019-05-06T03:55:05.709Z,65.45
2019-05-06T03:57:38.984Z,65.39
2019-05-06T04:00:12.990Z,65.50
2019-05-06T04:02:39.995Z,65.30
2019-05-06T04:05:08.484Z,65.45
2019-05-06T04:07:39.247Z,65.62
2019-05-06T04:10:07.007Z,65.47
2019-05-06T04:12:36.165Z,65.68
2019-05-06T04:15:04.282Z,65.71
2019-05-06T04:17:43.992Z,65.74
2019-05-06T04:20:39.966Z,65.82
2019-05-06T04:23:23.561Z,65.84
2019-05-06T04:25:58.770Z,66.02
2019-05-06T04:28:33.950Z,66.23
2019-05-06T04:30:58.160Z,66.39
2019-05-06T04:33:25.608Z,66.26
2019-05-06T04:35:54.303Z,66.23
2019-05-06T04:38:23.524Z,66.11
2019-05-06T04:40:54.503Z,66.08
2019-05-06T04:43:26.704Z,66.09
2019-05-06T04:46:02.884Z,66.15
2019-05-06T04:48:29.045Z,66.12
2019-05-06T04:50:56.191Z,66.12
2019-05-06T04:53:26.836Z,66.10
2019-05-06T04:55:53.947Z,66.21
2019-05-06T04:58:23.291Z,66.03
2019-05-06T05:00:53.059Z,66.06
2019-05-06T05:03:44.673Z,66.14
2019-05-06T05:06:13.603Z,66.40
2019-05-06T05:08:43.555Z,65.95
2019-05-06T05:11:22.690Z,66.20
2019-05-06T05:14:14.137Z,65.93
2019-05-06T05:17:06.590Z,65.88
2019-05-06T05:19:33.796Z,65.79
2019-05-06T05:22:06.941Z,65.67
2019-05-06T05:24:35.041Z,65.67
2019-05-06T05:27:03.152Z,65.62
2019-05-06T05:29:32.513Z,65.56
2019-05-06T05:31:59.674Z,65.56
2019-05-06T05:34:46.203Z,65.01
2019-05-06T05:37:13.328Z,65.28
2019-05-06T05:39:42.458Z,65.21
2019-05-06T05:42:22.148Z,65.20
2019-05-06T05:44:55.134Z,64.98
2019-05-06T05:47:22.223Z,64.86
2019-05-06T05:50:09.445Z,64.59
2019-05-06T05:52:38.095Z,64.73
2019-05-06T05:55:07.533Z,64.57
2019-05-06T05:57:34.632Z,64.57
2019-05-06T06:00:06.660Z,64.32
2019-05-06T06:02:33.709Z,64.49
2019-05-06T06:05:02.503Z,64.49
2019-05-06T06:07:37.405Z,64.53
2019-05-06T06:10:23.470Z,64.53
2019-05-06T06:12:53.326Z,64.53
2019-05-06T06:15:44.623Z,64.31
2019-05-06T06:18:20.025Z,64.31
2019-05-06T06:21:17.364Z,64.24
2019-05-06T06:23:34.946Z,64.12
2019-05-06T06:26:06.473Z,64.12
2019-05-06T06:28:33.518Z,64.90
2019-05-06T06:31:29.238Z,65.32
2019-05-06T06:34:03.732Z,64.84
2019-05-06T06:36:55.306Z,65.99
2019-05-06T06:39:25.333Z,66.45
2019-05-06T06:41:52.333Z,66.73
2019-05-06T06:44:26.176Z,67.82
2019-05-06T06:46:53.233Z,68.91
2019-05-06T06:49:22.254Z,69.69
2019-05-06T06:51:53.182Z,69.66
2019-05-06T06:54:22.994Z,70.24
2019-05-06T06:57:09.432Z,70.89
2019-05-06T06:59:48.773Z,70.48
2019-05-06T07:02:32.786Z,70.80
2019-05-06T07:05:22.396Z,71.63
2019-05-06T07:07:43.585Z,71.14
2019-05-06T07:10:12.147Z,71.14
2019-05-06T07:12:42.709Z,71.17
2019-05-06T07:15:09.945Z,71.15
2019-05-06T07:17:36.996Z,71.00
2019-05-06T07:20:07.576Z,71.42
2019-05-06T07:22:37.491Z,72.01
2019-05-06T07:25:06.553Z,72.00
2019-05-06T07:27:34.809Z,72.02
2019-05-06T07:30:03.030Z,72.94
2019-05-06T07:32:32.779Z,73.31
2019-05-06T07:35:14.189Z,74.11
2019-05-06T07:37:42.262Z,74.44
2019-05-06T07:40:09.952Z,75.36
2019-05-06T07:42:43.012Z,75.36
2019-05-06T07:45:26.054Z,75.19
2019-05-06T07:47:59.273Z,74.62
2019-05-06T07:50:28.446Z,74.97
2019-05-06T07:53:08.220Z,74.97
2019-05-06T07:55:36.213Z,75.06
2019-05-06T07:58:04.853Z,75.24
2019-05-06T08:00:33.799Z,75.24
2019-05-06T08:03:04.016Z,74.94
2019-05-06T08:05:32.432Z,73.95
2019-05-06T08:07:59.749Z,73.29
2019-05-06T08:10:26.887Z,73.40
2019-05-06T08:12:59.303Z,72.09
2019-05-06T08:15:32.983Z,72.17
2019-05-06T08:18:00.056Z,71.84
2019-05-06T08:20:42.759Z,71.82
2019-05-06T08:23:42.827Z,71.70
2019-05-06T08:26:15.635Z,71.70
2019-05-06T08:28:41.549Z,71.67
2019-05-06T08:31:26.082Z,71.60
2019-05-06T08:33:55.899Z,71.75
2019-05-06T08:36:30.401Z,71.70
2019-05-06T08:38:58.506Z,71.60
2019-05-06T08:41:33.384Z,71.60
2019-05-06T08:44:02.371Z,71.10
2019-05-06T08:46:33.256Z,71.10
2019-05-06T08:49:06.907Z,70.48
2019-05-06T08:51:58.021Z,70.93
2019-05-06T08:54:45.039Z,70.72
2019-05-06T08:57:15.738Z,70.75
2019-05-06T08:59:43.972Z,70.03
2019-05-06T09:02:13.548Z,70.05
2019-05-06T09:04:40.036Z,69.74
2019-05-06T09:07:14.841Z,69.74
2019-05-06T09:09:42.226Z,69.42
2019-05-06T09:12:13.053Z,69.35
2019-05-06T09:14:42.553Z,69.28
2019-05-06T09:17:12.133Z,68.76
2019-05-06T09:19:44.897Z,68.75
2019-05-06T09:22:12.951Z,69.00
2019-05-06T09:24:42.467Z,68.37
2019-05-06T09:27:22.633Z,67.71
2019-05-06T09:29:55.627Z,67.02
2019-05-06T09:32:36.275Z,67.59
2019-05-06T09:35:08.756Z,67.45
2019-05-06T09:37:35.777Z,67.63
2019-05-06T09:40:03.163Z,67.86
2019-05-06T09:42:32.162Z,67.41
2019-05-06T09:45:02.395Z,67.90
2019-05-06T09:48:03.090Z,67.75
2019-05-06T09:50:37.973Z,66.90
2019-05-06T09:53:16.084Z,67.80
2019-05-06T09:56:03.324Z,68.35
2019-05-06T09:58:34.558Z,67.98
2019-05-06T10:01:03.541Z,68.13
2019-05-06T10:03:32.242Z,67.72
2019-05-06T10:06:02.753Z,68.46
2019-05-06T10:08:32.324Z,68.66
2019-05-06T10:11:00.044Z,66.63
2019-05-06T10:13:29.819Z,66.63
2019-05-06T10:15:59.108Z,65.59
2019-05-06T10:18:26.103Z,65.33
2019-05-06T10:20:53.158Z,64.93
2019-05-06T10:23:22.653Z,64.38
2019-05-06T10:25:49.677Z,64.00
2019-05-06T10:28:45.637Z,64.43
2019-05-06T10:31:14.787Z,63.56
2019-05-06T10:33:59.961Z,63.89
2019-05-06T10:36:34.216Z,64.45
2019-05-06T10:39:06.164Z,65.05
2019-05-06T10:41:36.878Z,64.94
2019-05-06T10:44:33.091Z,64.27
2019-05-06T10:47:00.091Z,64.47
2019-05-06T10:49:27.117Z,64.50
2019-05-06T10:52:12.842Z,63.45
2019-05-06T10:54:42.016Z,64.24
2019-05-06T10:57:18.188Z,65.23
2019-05-06T10:59:45.267Z,64.58
2019-05-06T11:02:23.821Z,63.39
2019-05-06T11:04:56.892Z,63.09
2019-05-06T11:07:31.470Z,63.49
2019-05-06T11:09:53.393Z,63.63
2019-05-06T11:12:21.867Z,63.68
2019-05-06T11:14:55.717Z,64.07
2019-05-06T11:17:26.822Z,63.29
2019-05-06T11:19:59.514Z,63.66
2019-05-06T11:22:29.715Z,63.66
2019-05-06T11:24:59.232Z,64.33
2019-05-06T11:27:32.133Z,64.33
2019-05-06T11:29:56.511Z,64.39
2019-05-06T11:32:44.417Z,64.69
2019-05-06T11:35:17.268Z,65.12
2019-05-06T11:38:12.143Z,64.89
2019-05-06T11:40:39.301Z,66.63
2019-05-06T11:43:11.999Z,67.62
2019-05-06T11:45:39.084Z,67.62
2019-05-06T11:48:06.131Z,70.02
2019-05-06T11:50:33.529Z,70.63
2019-05-06T11:53:02.431Z,69.83
2019-05-06T11:55:34.430Z,69.00
2019-05-06T11:57:58.638Z,69.00
2019-05-06T12:00:35.597Z,69.49
2019-05-06T12:03:02.247Z,67.49
2019-05-06T12:05:29.051Z,67.12
2019-05-06T12:08:07.793Z,67.63
2019-05-06T12:10:33.342Z,66.17
2019-05-06T12:13:04.787Z,66.17
2019-05-06T12:15:31.880Z,66.41
2019-05-06T12:18:03.628Z,65.15
2019-05-06T12:20:32.988Z,65.94
2019-05-06T12:23:03.853Z,64.29
2019-05-06T12:25:31.777Z,63.90
2019-05-06T12:27:58.809Z,63.90
2019-05-06T12:30:25.826Z,64.10
2019-05-06T12:33:13.007Z,63.76
2019-05-06T12:35:43.969Z,63.18
2019-05-06T12:38:28.712Z,63.66
2019-05-06T12:40:48.035Z,64.11
2019-05-06T12:43:35.016Z,61.24
2019-05-06T12:46:15.203Z,61.23
2019-05-06T12:48:46.120Z,61.85
2019-05-06T12:51:14.579Z,61.87
2019-05-06T12:53:44.652Z,63.24
2019-05-06T12:56:21.943Z,63.67
2019-05-06T12:58:55.887Z,62.71
2019-05-06T13:01:33.500Z,63.02
2019-05-06T13:04:00.022Z,62.49
2019-05-06T13:06:27.085Z,63.42
2019-05-06T13:09:01.657Z,63.22
2019-05-06T13:11:25.350Z,63.42
2019-05-06T13:14:00.341Z,63.95
2019-05-06T13:16:26.169Z,63.46
2019-05-06T13:18:54.904Z,63.69
2019-05-06T13:21:22.425Z,65.26
2019-05-06T13:23:53.255Z,65.26
2019-05-06T13:26:22.274Z,64.85
2019-05-06T13:28:54.094Z,65.04
2019-05-06T13:31:25.480Z,66.00
2019-05-06T13:33:59.531Z,65.11
2019-05-06T13:36:27.959Z,62.37
2019-05-06T13:39:09.614Z,62.37
2019-05-06T13:41:26.065Z,60.78
2019-05-06T13:44:07.902Z,60.78
2019-05-06T13:46:39.264Z,60.36
2019-05-06T13:49:32.109Z,60.05
2019-05-06T13:52:05.238Z,59.53
2019-05-06T13:54:35.353Z,59.50
2019-05-06T13:57:12.451Z,58.98
2019-05-06T13:59:39.877Z,59.62
2019-05-06T14:02:44.532Z,59.13
2019-05-06T14:05:12.204Z,59.37
2019-05-06T14:07:39.290Z,59.37
2019-05-06T14:10:09.854Z,58.01
2019-05-06T14:12:42.427Z,59.00
2019-05-06T14:15:14.245Z,59.39
2019-05-06T14:17:52.468Z,60.04
2019-05-06T14:20:19.486Z,60.22
2019-05-06T14:22:49.477Z,60.85
2019-05-06T14:25:38.344Z,61.36
2019-05-06T14:28:15.313Z,60.29
2019-05-06T14:31:02.976Z,59.27
2019-05-06T14:33:37.560Z,59.27
2019-05-06T14:36:04.588Z,58.71
2019-05-06T14:38:32.900Z,58.71
2019-05-06T14:41:13.153Z,59.45
2019-05-06T14:43:45.529Z,60.65
2019-05-06T14:46:12.593Z,60.65
2019-05-06T14:48:39.599Z,58.84
2019-05-06T14:51:06.622Z,58.65
2019-05-06T14:53:33.678Z,59.05
2019-05-06T14:56:05.160Z,58.94
2019-05-06T14:58:32.262Z,57.88
2019-05-06T15:00:59.324Z,58.72
2019-05-06T15:03:32.568Z,57.62
2019-05-06T15:05:59.525Z,57.78
2019-05-06T15:08:26.608Z,57.09
2019-05-06T15:10:53.629Z,57.09
2019-05-06T15:13:22.876Z,56.78
2019-05-06T15:15:49.633Z,56.78
2019-05-06T15:18:22.468Z,55.31
2019-05-06T15:21:29.292Z,55.31
2019-05-06T15:23:32.661Z,55.33
2019-05-06T15:25:59.709Z,56.31
2019-05-06T15:28:28.804Z,55.43
2019-05-06T15:31:05.971Z,55.43
2019-05-06T15:33:36.886Z,56.53
2019-05-06T15:36:13.689Z,55.57
2019-05-06T15:38:49.527Z,54.55
2019-05-06T15:41:18.032Z,56.26
2019-05-06T15:43:45.076Z,55.81
2019-05-06T15:46:12.286Z,55.70
2019-05-06T15:48:48.342Z,55.87
2019-05-06T15:51:17.439Z,55.89
2019-05-06T15:53:44.470Z,53.86
2019-05-06T15:56:12.273Z,53.86
2019-05-06T15:58:39.346Z,54.72
2019-05-06T16:01:06.357Z,54.39
2019-05-06T16:03:33.662Z,54.24
2019-05-06T16:06:02.010Z,54.80
2019-05-06T16:08:32.221Z,54.90
2019-05-06T16:10:59.322Z,55.12
2019-05-06T16:13:26.345Z,54.23
2019-05-06T16:15:53.405Z,54.01
2019-05-06T16:18:24.362Z,53.96
2019-05-06T16:20:51.389Z,52.64
2019-05-06T16:23:27.154Z,52.64
2019-05-06T16:25:54.198Z,52.63
2019-05-06T16:28:22.452Z,52.63
2019-05-06T16:30:53.513Z,52.72
2019-05-06T16:33:23.387Z,52.52
2019-05-06T16:35:57.242Z,53.10
2019-05-06T16:38:27.080Z,53.13
2019-05-06T16:41:09.104Z,52.95
2019-05-06T16:43:28.822Z,52.14
2019-05-06T16:45:56.968Z,50.75
2019-05-06T16:48:37.907Z,50.84
2019-05-06T16:51:05.031Z,50.82
2019-05-06T16:53:37.578Z,51.32
2019-05-06T16:56:18.899Z,51.32
2019-05-06T16:58:52.558Z,51.04
2019-05-06T17:01:22.092Z,51.65
2019-05-06T17:04:08.418Z,51.82
2019-05-06T17:06:37.395Z,52.52
2019-05-06T17:09:17.311Z,52.33
2019-05-06T17:11:35.970Z,52.75
2019-05-06T17:14:06.026Z,52.88
2019-05-06T17:16:34.177Z,52.51
2019-05-06T17:19:04.447Z,51.56
2019-05-06T17:21:36.084Z,53.18
2019-05-06T17:24:08.113Z,53.18
2019-05-06T17:26:38.883Z,52.34
2019-05-06T17:29:32.328Z,52.76
2019-05-06T17:32:06.688Z,52.64
2019-05-06T17:34:36.786Z,53.06
2019-05-06T17:37:13.115Z,53.06
2019-05-06T17:39:42.340Z,53.15
2019-05-06T17:42:16.246Z,53.15
2019-05-06T17:44:47.865Z,53.40
2019-05-06T17:47:29.079Z,53.15
2019-05-06T17:49:56.175Z,52.85
2019-05-06T17:52:23.223Z,51.99
2019-05-06T17:54:52.606Z,52.23
2019-05-06T17:57:19.267Z,52.40
2019-05-06T17:59:48.136Z,52.98
2019-05-06T18:02:19.189Z,53.07
2019-05-06T18:04:45.938Z,53.43
2019-05-06T18:07:17.150Z,53.06
2019-05-06T18:09:44.202Z,53.72
2019-05-06T18:12:12.091Z,53.35
2019-05-06T18:14:43.258Z,53.89
2019-05-06T18:17:12.464Z,54.53
2019-05-06T18:19:39.670Z,54.63
2019-05-06T18:22:06.721Z,54.84
2019-05-06T18:24:38.090Z,55.09
2019-05-06T18:27:06.443Z,55.09
2019-05-06T18:29:39.248Z,55.13
2019-05-06T18:32:06.872Z,55.44
2019-05-06T18:34:36.998Z,55.04
2019-05-06T18:37:04.298Z,55.02
2019-05-06T18:39:33.767Z,55.02
2019-05-06T18:42:15.747Z,55.70
2019-05-06T18:44:33.242Z,55.83
2019-05-06T18:47:09.046Z,55.76
2019-05-06T18:49:36.058Z,55.71
2019-05-06T18:52:07.062Z,55.83
2019-05-06T18:54:34.157Z,55.58
2019-05-06T18:57:04.315Z,55.48
2019-05-06T18:59:33.234Z,55.78
2019-05-06T19:02:09.117Z,55.99
2019-05-06T19:04:52.138Z,55.80
2019-05-06T19:07:24.097Z,55.80
2019-05-06T19:10:06.204Z,56.05
2019-05-06T19:12:40.614Z,55.84
2019-05-06T19:15:04.150Z,55.79
2019-05-06T19:17:33.432Z,56.27
2019-05-06T19:20:02.795Z,56.77
2019-05-06T19:22:32.309Z,57.03
2019-05-06T19:24:58.814Z,57.03
2019-05-06T19:27:26.290Z,57.27
2019-05-06T19:29:54.607Z,57.33
2019-05-06T19:32:29.598Z,57.52
2019-05-06T19:34:56.671Z,57.56
2019-05-06T19:37:27.905Z,57.65
2019-05-06T19:39:56.652Z,58.01
2019-05-06T19:42:23.646Z,58.01
2019-05-06T19:44:54.268Z,58.02
2019-05-06T19:47:28.573Z,58.18
2019-05-06T19:50:04.001Z,58.44
2019-05-06T19:52:34.330Z,58.61
2019-05-06T19:55:03.080Z,59.01
2019-05-06T19:57:32.234Z,59.22
2019-05-06T19:59:59.270Z,59.40
2019-05-06T20:02:32.026Z,59.40
2019-05-06T20:05:03.422Z,59.11
2019-05-06T20:08:02.842Z,58.91
2019-05-06T20:10:49.674Z,58.82
2019-05-06T20:13:16.704Z,58.36
2019-05-06T20:15:43.726Z,58.72
2019-05-06T20:18:12.940Z,58.82
2019-05-06T20:20:42.870Z,59.07
2019-05-06T20:23:12.329Z,58.98
2019-05-06T20:25:42.793Z,58.98
2019-05-06T20:28:08.984Z,59.01
2019-05-06T20:30:36.139Z,59.08
2019-05-06T20:33:04.620Z,59.09
2019-05-06T20:35:32.376Z,59.18
2019-05-06T20:37:59.346Z,59.31
2019-05-06T20:40:26.370Z,59.42
2019-05-06T20:42:53.443Z,59.53
2019-05-06T20:45:22.325Z,59.60
2019-05-06T20:47:49.406Z,59.51
2019-05-06T20:50:16.483Z,59.46
2019-05-06T20:52:43.530Z,59.48
2019-05-06T20:55:15.906Z,59.41
2019-05-06T20:57:48.142Z,59.35
2019-05-06T21:00:26.075Z,59.47
2019-05-06T21:02:56.300Z,59.43
2019-05-06T21:05:23.397Z,59.36
2019-05-06T21:07:52.618Z,59.37
2019-05-06T21:10:22.037Z,59.43
2019-05-06T21:12:50.423Z,59.38
2019-05-06T21:15:27.128Z,59.09
2019-05-06T21:17:54.156Z,59.01
2019-05-06T21:20:27.912Z,58.90
2019-05-06T21:22:54.969Z,58.77
2019-05-06T21:25:27.329Z,58.68
2019-05-06T21:27:55.498Z,58.35
2019-05-06T21:30:24.433Z,58.34
2019-05-06T21:32:54.073Z,58.41
2019-05-06T21:35:23.920Z,58.29
2019-05-06T21:37:52.940Z,58.16
2019-05-06T21:40:39.803Z,58.25
2019-05-06T21:43:12.832Z,58.29
2019-05-06T21:45:39.674Z,58.24
2019-05-06T21:48:06.682Z,58.16
2019-05-06T21:50:33.932Z,58.18
2019-05-06T21:53:02.751Z,58.17
2019-05-06T21:55:32.187Z,58.14
2019-05-06T21:57:58.860Z,58.13
2019-05-06T22:00:40.417Z,58.03
2019-05-06T22:03:07.453Z,58.17
2019-05-06T22:05:34.475Z,58.10
2019-05-06T22:08:02.101Z,58.12
2019-05-06T22:10:29.258Z,58.16
2019-05-06T22:12:59.858Z,58.23
2019-05-06T22:15:33.475Z,58.30
2019-05-06T22:17:58.266Z,58.25
2019-05-06T22:20:25.294Z,58.27
2019-05-06T22:22:52.308Z,58.25
2019-05-06T22:25:26.776Z,58.31
2019-05-06T22:27:53.801Z,58.42
2019-05-06T22:30:23.718Z,58.52
2019-05-06T22:32:49.770Z,58.60
2019-05-06T22:35:16.936Z,58.67
2019-05-06T22:37:45.047Z,58.75
2019-05-06T22:40:12.609Z,58.84
2019-05-06T22:42:39.627Z,58.88
2019-05-06T22:45:08.090Z,58.90
2019-05-06T22:47:36.303Z,58.99
2019-05-06T22:50:08.556Z,59.06
2019-05-06T22:52:35.925Z,59.14
2019-05-06T22:55:03.974Z,59.19
2019-05-06T22:57:37.386Z,59.32
2019-05-06T23:00:07.186Z,59.42
2019-05-06T23:02:57.267Z,59.59
2019-05-06T23:05:24.269Z,59.66
2019-05-06T23:07:53.220Z,59.66
2019-05-06T23:10:25.218Z,59.76
2019-05-06T23:12:54.546Z,59.89
2019-05-06T23:15:21.586Z,59.99
2019-05-06T23:17:48.643Z,60.16
2019-05-06T23:20:17.728Z,60.99
2019-05-06T23:22:44.795Z,61.52
2019-05-06T23:25:13.124Z,61.67
2019-05-06T23:27:43.854Z,62.00
2019-05-06T23:30:12.559Z,62.51
2019-05-06T23:32:42.491Z,63.06
2019-05-06T23:35:12.803Z,63.67
2019-05-06T23:38:16.049Z,64.11
2019-05-06T23:41:22.013Z,64.14
2019-05-06T23:44:25.453Z,64.37
2019-05-06T23:47:31.463Z,64.76
2019-05-06T23:50:34.817Z,64.99
2019-05-06T23:53:38.042Z,65.15
2019-05-06T23:56:43.271Z,65.31
2019-05-06T23:59:12.529Z,65.27
